Time;durP1;ratioP1;P1;durP2;ratioP2;P2;SDS_P1;SDS_P2;PMS_P1;PMS_P2;Temp;Humidity;BMP_temperature;BMP_pressure;BME280_temperature;BME280_humidity;BME280_pressure;Samples;Min_cycle;Max_cycle;Signal;HPM_P1;HPM_P2
2021/08/02 00:00:40;;;;;;;5.43;3.17;;;;;;;;;;1505600;39;20023;-59
2021/08/02 00:01:48;;;;;;;6.35;3.20;;;;;;;;;;1505539;39;20110;-59
2021/08/02 00:02:55;;;;;;;6.68;2.72;;;;;;;;;;1505638;39;20362;-59
2021/08/02 00:04:02;;;;;;;7.53;3.33;;;;;;;;;;1505732;39;20038;-59
2021/08/02 00:05:06;;;;;;;5.65;3.05;;;;;;;;;;1505558;39;20023;-59
2021/08/02 00:06:10;;;;;;;7.15;3.47;;;;;;;;;;1505544;39;20026;-59
2021/08/02 00:07:14;;;;;;;4.68;3.10;;;;;;;;;;1505549;39;20018;-59
2021/08/02 00:08:21;;;;;;;4.55;3.08;;;;;;;;;;1505558;39;20059;-59
2021/08/02 00:09:30;;;;;;;6.15;3.03;;;;;;;;;;1505652;39;20038;-59
2021/08/02 00:10:34;;;;;;;9.27;3.45;;;;;;;;;;1505649;39;20039;-59
2021/08/02 00:11:39;;;;;;;5.97;3.50;;;;;;;;;;1505633;39;20029;-59
2021/08/02 00:12:47;;;;;;;4.72;3.35;;;;;;;;;;1505501;39;20098;-59
2021/08/02 00:13:51;;;;;;;7.95;3.40;;;;;;;;;;1505479;39;20019;-59
2021/08/02 00:14:55;;;;;;;5.88;3.08;;;;;;;;;;1505548;39;20027;-59
2021/08/02 00:15:57;;;;;;;6.15;3.67;;;;;;;;;;1505451;39;20026;-59
2021/08/02 00:17:00;;;;;;;4.22;2.92;;;;;;;;;;1505500;39;20102;-59
2021/08/02 00:18:02;;;;;;;5.30;3.40;;;;;;;;;;1505493;39;20018;-59
2021/08/02 00:19:04;;;;;;;5.90;3.03;;;;;;;;;;1505657;39;20030;-59
2021/08/02 00:20:07;;;;;;;7.03;3.47;;;;;;;;;;1505412;39;20031;-59
2021/08/02 00:21:09;;;;;;;7.55;3.35;;;;;;;;;;1505392;39;20285;-59
2021/08/02 00:22:10;;;;;;;6.40;3.33;;;;;;;;;;1505375;39;20382;-59
2021/08/02 00:23:12;;;;;;;6.22;3.10;;;;;;;;;;1505624;39;20059;-59
2021/08/02 00:24:14;;;;;;;4.35;2.90;;;;;;;;;;1505399;39;20023;-59
2021/08/02 00:25:16;;;;;;;5.55;3.20;;;;;;;;;;1505463;39;20034;-59
2021/08/02 00:26:19;;;;;;;6.47;3.40;;;;;;;;;;1505485;39;20289;-59
2021/08/02 00:27:20;;;;;;;5.38;3.42;;;;;;;;;;1505459;39;20458;-59
2021/08/02 00:28:23;;;;;;;4.80;3.50;;;;;;;;;;1505412;39;20301;-59
2021/08/02 00:29:25;;;;;;;6.68;3.28;;;;;;;;;;1505309;39;20033;-59
2021/08/02 00:30:27;;;;;;;4.75;2.78;;;;;;;;;;1505389;39;20030;-59
2021/08/02 00:31:29;;;;;;;6.20;3.42;;;;;;;;;;1505626;39;20106;-59
2021/08/02 00:32:32;;;;;;;4.63;3.20;;;;;;;;;;1505429;39;20026;-59
2021/08/02 00:33:33;;;;;;;6.40;3.40;;;;;;;;;;1505473;39;20092;-59
2021/08/02 00:34:35;;;;;;;4.82;3.30;;;;;;;;;;1505443;39;20347;-59
2021/08/02 00:35:44;;;;;;;7.80;3.80;;;;;;;;;;1505398;39;20029;-58
2021/08/02 00:36:48;;;;;;;7.70;3.40;;;;;;;;;;1505386;39;20023;-58
2021/08/02 00:37:56;;;;;;;7.85;3.50;;;;;;;;;;1505511;39;20111;-56
2021/08/02 00:39:03;;;;;;;6.90;3.58;;;;;;;;;;1505421;39;20030;-58
2021/08/02 00:40:30;;;;;;;5.60;3.22;;;;;;;;;;1505381;39;20022;-58
2021/08/02 00:42:09;;;;;;;6.22;3.55;;;;;;;;;;1498884;39;20042;-59
2021/08/02 00:43:30;;;;;;;5.70;3.25;;;;;;;;;;1506170;39;20366;-58
2021/08/02 00:44:57;;;;;;;6.47;3.35;;;;;;;;;;1506007;39;20390;-58
2021/08/02 00:46:01;;;;;;;6.18;2.97;;;;;;;;;;1506259;39;20037;-58
2021/08/02 00:47:04;;;;;;;5.57;3.67;;;;;;;;;;1506247;39;20029;-59
2021/08/02 00:48:08;;;;;;;6.68;3.80;;;;;;;;;;1506150;39;20382;-59
2021/08/02 00:49:12;;;;;;;4.72;3.40;;;;;;;;;;1506116;39;20066;-58
2021/08/02 00:50:16;;;;;;;5.90;3.75;;;;;;;;;;1506013;39;20370;-58
2021/08/02 00:51:18;;;;;;;9.18;3.85;;;;;;;;;;1506035;39;20022;-58
2021/08/02 00:52:21;;;;;;;6.18;3.55;;;;;;;;;;1506124;39;20022;-59
2021/08/02 00:53:26;;;;;;;6.22;3.22;;;;;;;;;;1506182;39;20025;-58
2021/08/02 00:54:28;;;;;;;6.10;3.95;;;;;;;;;;1506123;39;20031;-59
2021/08/02 00:55:30;;;;;;;4.80;3.53;;;;;;;;;;1505957;39;20062;-59
2021/08/02 00:56:34;;;;;;;6.40;3.63;;;;;;;;;;1506145;39;20034;-59
2021/08/02 00:57:37;;;;;;;6.45;3.83;;;;;;;;;;1505960;39;20026;-59
2021/08/02 00:58:41;;;;;;;6.30;3.90;;;;;;;;;;1506101;39;20049;-59
2021/08/02 00:59:44;;;;;;;6.25;3.70;;;;;;;;;;1506374;39;20262;-58
2021/08/02 01:00:55;;;;;;;6.05;3.45;;;;;;;;;;1501965;39;20289;-59
2021/08/02 01:02:03;;;;;;;;;;;;;;;;;;1503141;39;20085;-59
2021/08/02 01:03:07;;;;;;;6.43;3.97;;;;;;;;;;1506629;39;19930;-58
2021/08/02 01:04:09;;;;;;;7.22;3.65;;;;;;;;;;1506468;39;20022;-58
2021/08/02 01:05:12;;;;;;;8.35;3.78;;;;;;;;;;1506535;39;20022;-58
2021/08/02 01:06:15;;;;;;;8.50;3.85;;;;;;;;;;1506765;39;20018;-60
2021/08/02 01:07:18;;;;;;;8.18;4.13;;;;;;;;;;1506696;39;20023;-58
2021/08/02 01:08:22;;;;;;;6.15;3.72;;;;;;;;;;1506612;39;20023;-58
2021/08/02 01:09:25;;;;;;;5.65;3.60;;;;;;;;;;1506808;39;20023;-58
2021/08/02 01:10:29;;;;;;;6.07;3.25;;;;;;;;;;1506336;39;20267;-59
2021/08/02 01:11:33;;;;;;;6.72;3.80;;;;;;;;;;1505998;39;20105;-58
2021/08/02 01:12:35;;;;;;;5.07;3.53;;;;;;;;;;1505975;39;20404;-59
2021/08/02 01:13:38;;;;;;;8.75;3.63;;;;;;;;;;1506011;39;20023;-58
2021/08/02 01:14:41;;;;;;;6.18;3.78;;;;;;;;;;1501127;39;20299;-58
2021/08/02 01:15:45;;;;;;;8.75;3.92;;;;;;;;;;1501178;39;20023;-58
2021/08/02 01:16:47;;;;;;;5.18;3.28;;;;;;;;;;1506016;39;20023;-58
2021/08/02 01:17:50;;;;;;;6.65;3.85;;;;;;;;;;1506013;39;20026;-59
2021/08/02 01:18:52;;;;;;;6.82;3.42;;;;;;;;;;1505980;39;20018;-59
2021/08/02 01:19:55;;;;;;;6.30;3.72;;;;;;;;;;1505919;39;20378;-58
2021/08/02 01:21:01;;;;;;;5.65;3.67;;;;;;;;;;1501080;39;20441;-59
2021/08/02 01:22:04;;;;;;;6.88;3.70;;;;;;;;;;1501753;39;20027;-58
2021/08/02 01:23:07;;;;;;;9.18;4.10;;;;;;;;;;1505881;39;20039;-58
2021/08/02 01:24:12;;;;;;;9.48;3.55;;;;;;;;;;1506101;39;20022;-58
2021/08/02 01:25:46;;;;;;;6.60;3.40;;;;;;;;;;1506020;39;20018;-58
2021/08/02 01:27:18;;;;;;;5.30;3.35;;;;;;;;;;1505524;39;20122;-58
2021/08/02 01:28:55;;;;;;;6.97;3.55;;;;;;;;;;1505926;39;20027;-58
2021/08/02 01:30:20;;;;;;;6.03;3.80;;;;;;;;;;1506064;39;20022;-58
2021/08/02 01:31:20;;;;;;;7.75;3.72;;;;;;;;;;1505953;39;20026;-58
2021/08/02 01:32:22;;;;;;;8.25;4.22;;;;;;;;;;1505970;39;20057;-58
2021/08/02 01:33:28;;;;;;;7.88;3.90;;;;;;;;;;1505814;39;20271;-58
2021/08/02 01:34:30;;;;;;;6.63;3.25;;;;;;;;;;1506069;39;20031;-58
2021/08/02 01:35:31;;;;;;;5.47;3.67;;;;;;;;;;1505879;39;20026;-58
2021/08/02 01:36:33;;;;;;;7.20;3.83;;;;;;;;;;1505885;39;20059;-58
2021/08/02 01:37:33;;;;;;;5.63;3.85;;;;;;;;;;1505844;39;20023;-58
2021/08/02 01:38:36;;;;;;;8.38;4.32;;;;;;;;;;1505830;39;20274;-58
2021/08/02 01:39:40;;;;;;;6.00;4.10;;;;;;;;;;1505791;39;20023;-58
2021/08/02 01:40:41;;;;;;;8.02;3.97;;;;;;;;;;1505895;39;20031;-58
2021/08/02 01:41:43;;;;;;;9.10;3.85;;;;;;;;;;1506012;39;20038;-58
2021/08/02 01:42:44;;;;;;;8.80;3.85;;;;;;;;;;1505815;39;20038;-58
2021/08/02 01:43:45;;;;;;;5.40;3.80;;;;;;;;;;1505943;39;20031;-58
2021/08/02 01:44:46;;;;;;;6.32;4.15;;;;;;;;;;1505839;39;20310;-58
2021/08/02 01:45:54;;;;;;;9.13;4.05;;;;;;;;;;1505912;39;20105;-59
2021/08/02 01:47:02;;;;;;;8.75;4.07;;;;;;;;;;1505920;39;20106;-59
2021/08/02 01:48:09;;;;;;;5.00;3.75;;;;;;;;;;1506014;39;20393;-59
2021/08/02 01:49:31;;;;;;;6.72;4.15;;;;;;;;;;1505982;39;20023;-59
2021/08/02 01:50:39;;;;;;;6.03;3.83;;;;;;;;;;1505919;39;20034;-58
2021/08/02 01:51:43;;;;;;;7.43;4.22;;;;;;;;;;1506009;39;20027;-58
2021/08/02 01:52:53;;;;;;;6.68;4.40;;;;;;;;;;1505858;39;20030;-59
2021/08/02 01:54:02;;;;;;;7.57;4.35;;;;;;;;;;1505755;39;20038;-59
2021/08/02 01:55:09;;;;;;;7.97;3.97;;;;;;;;;;1506141;39;20033;-58
2021/08/02 01:56:16;;;;;;;8.15;4.25;;;;;;;;;;1505835;39;20019;-58
2021/08/02 01:57:23;;;;;;;8.07;4.22;;;;;;;;;;1505980;39;20027;-58
2021/08/02 01:58:30;;;;;;;9.65;4.28;;;;;;;;;;1505816;39;20033;-58
2021/08/02 01:59:39;;;;;;;9.75;4.45;;;;;;;;;;1505950;39;20026;-59
2021/08/02 02:00:45;;;;;;;5.85;4.00;;;;;;;;;;1505858;39;20019;-59
2021/08/02 02:01:53;;;;;;;7.05;4.13;;;;;;;;;;1506050;39;20115;-58
2021/08/02 02:03:00;;;;;;;8.60;4.20;;;;;;;;;;1505848;39;20405;-58
2021/08/02 02:04:05;;;;;;;7.47;4.30;;;;;;;;;;1505951;39;20023;-59
2021/08/02 02:05:12;;;;;;;7.90;4.43;;;;;;;;;;1506058;39;20037;-58
2021/08/02 02:06:16;;;;;;;8.32;4.60;;;;;;;;;;1505883;39;20030;-58
2021/08/02 02:07:20;;;;;;;6.00;4.03;;;;;;;;;;1505892;39;20019;-58
2021/08/02 02:08:25;;;;;;;8.32;5.20;;;;;;;;;;1505796;39;20324;-58
2021/08/02 02:09:31;;;;;;;9.30;4.22;;;;;;;;;;1506008;39;20067;-58
2021/08/02 02:10:38;;;;;;;9.38;4.97;;;;;;;;;;1505865;39;20036;-59
2021/08/02 02:11:45;;;;;;;8.57;4.70;;;;;;;;;;1506308;39;20022;-58
2021/08/02 02:12:48;;;;;;;7.90;4.43;;;;;;;;;;1506003;39;20023;-58
2021/08/02 02:13:54;;;;;;;9.40;4.15;;;;;;;;;;1505874;39;20031;-59
2021/08/02 02:14:57;;;;;;;9.60;4.40;;;;;;;;;;1505881;39;20023;-58
2021/08/02 02:16:01;;;;;;;6.65;4.55;;;;;;;;;;1505852;39;20286;-58
2021/08/02 02:17:03;;;;;;;10.27;4.97;;;;;;;;;;1505849;39;20019;-58
2021/08/02 02:18:05;;;;;;;10.30;4.85;;;;;;;;;;1505839;39;20046;-58
2021/08/02 02:19:07;;;;;;;6.53;4.18;;;;;;;;;;1505846;39;20092;-58
2021/08/02 02:20:11;;;;;;;10.70;5.10;;;;;;;;;;1505809;39;20041;-58
2021/08/02 02:21:12;;;;;;;6.53;4.70;;;;;;;;;;1505771;39;20029;-59
2021/08/02 02:22:15;;;;;;;7.72;4.50;;;;;;;;;;1505803;39;20386;-59
2021/08/02 02:23:17;;;;;;;7.57;4.65;;;;;;;;;;1505825;39;20076;-58
2021/08/02 02:24:19;;;;;;;10.30;4.80;;;;;;;;;;1505755;39;20106;-58
2021/08/02 02:25:21;;;;;;;8.70;4.28;;;;;;;;;;1505698;39;20293;-58
2021/08/02 02:26:27;;;;;;;5.75;3.83;;;;;;;;;;1505796;39;20023;-58
2021/08/02 02:27:28;;;;;;;8.32;4.80;;;;;;;;;;1505753;39;20031;-60
2021/08/02 02:28:32;;;;;;;9.27;4.38;;;;;;;;;;1505824;39;20404;-58
2021/08/02 02:29:34;;;;;;;10.13;4.72;;;;;;;;;;1505708;39;20030;-58
2021/08/02 02:30:37;;;;;;;7.57;4.35;;;;;;;;;;1505819;39;20025;-58
2021/08/02 02:31:41;;;;;;;7.25;4.35;;;;;;;;;;1505896;39;20026;-58
2021/08/02 02:32:45;;;;;;;9.05;4.93;;;;;;;;;;1505709;39;20027;-58
2021/08/02 02:33:47;;;;;;;8.25;4.72;;;;;;;;;;1505937;39;20022;-58
2021/08/02 02:34:51;;;;;;;8.20;4.20;;;;;;;;;;1505810;39;20027;-58
2021/08/02 02:35:52;;;;;;;9.18;4.30;;;;;;;;;;1505691;39;20293;-58
2021/08/02 02:36:55;;;;;;;7.65;4.75;;;;;;;;;;1505813;39;20026;-59
2021/08/02 02:37:57;;;;;;;8.80;4.88;;;;;;;;;;1505673;39;20109;-58
2021/08/02 02:39:00;;;;;;;9.13;4.60;;;;;;;;;;1500915;39;20038;-58
2021/08/02 02:40:02;;;;;;;7.82;4.75;;;;;;;;;;1501001;39;20333;-58
2021/08/02 02:41:05;;;;;;;7.53;4.90;;;;;;;;;;1505767;39;20018;-58
2021/08/02 02:42:07;;;;;;;6.07;4.07;;;;;;;;;;1505918;39;20042;-58
2021/08/02 02:43:09;;;;;;;7.07;4.93;;;;;;;;;;1505938;39;20026;-58
2021/08/02 02:44:10;;;;;;;9.20;4.85;;;;;;;;;;1505664;39;20030;-59
2021/08/02 02:45:12;;;;;;;7.85;4.53;;;;;;;;;;1505668;39;20357;-59
2021/08/02 02:46:14;;;;;;;8.80;4.88;;;;;;;;;;1505699;39;20023;-59
2021/08/02 02:47:16;;;;;;;7.32;4.43;;;;;;;;;;1505740;39;20033;-58
2021/08/02 02:48:17;;;;;;;7.85;4.60;;;;;;;;;;1505680;39;20072;-58
2021/08/02 02:49:20;;;;;;;7.13;4.65;;;;;;;;;;1505691;39;20033;-59
2021/08/02 02:50:21;;;;;;;9.48;5.03;;;;;;;;;;1505556;39;20030;-60
2021/08/02 02:51:26;;;;;;;10.48;5.53;;;;;;;;;;1505897;39;20026;-58
2021/08/02 02:52:27;;;;;;;9.05;4.85;;;;;;;;;;1505640;39;20019;-59
2021/08/02 02:53:30;;;;;;;6.57;4.70;;;;;;;;;;1505738;39;20023;-58
2021/08/02 02:54:32;;;;;;;9.55;4.53;;;;;;;;;;1505730;39;20038;-58
2021/08/02 02:55:35;;;;;;;9.48;5.50;;;;;;;;;;1505630;39;20415;-58
2021/08/02 02:56:38;;;;;;;9.25;5.30;;;;;;;;;;1505752;39;20080;-59
2021/08/02 02:57:40;;;;;;;7.57;4.57;;;;;;;;;;1505799;39;20041;-58
2021/08/02 02:58:41;;;;;;;10.05;5.53;;;;;;;;;;1505648;39;20026;-59
2021/08/02 02:59:43;;;;;;;14.05;5.13;;;;;;;;;;1505715;39;20029;-59
2021/08/02 03:00:44;;;;;;;8.57;5.25;;;;;;;;;;1505650;39;20033;-58
2021/08/02 03:01:50;;;;;;;9.30;5.10;;;;;;;;;;1505786;39;20022;-58
2021/08/02 03:02:54;;;;;;;10.95;5.30;;;;;;;;;;1505824;39;20159;-58
2021/08/02 03:04:00;;;;;;;8.07;5.13;;;;;;;;;;1505255;39;20022;-58
2021/08/02 03:05:01;;;;;;;9.15;4.90;;;;;;;;;;1505614;39;20471;-58
2021/08/02 03:06:03;;;;;;;8.13;4.93;;;;;;;;;;1505888;39;20019;-58
2021/08/02 03:07:09;;;;;;;9.25;5.15;;;;;;;;;;1505614;39;20036;-58
2021/08/02 03:08:14;;;;;;;9.82;5.55;;;;;;;;;;1505882;39;20356;-58
2021/08/02 03:09:18;;;;;;;11.40;5.22;;;;;;;;;;1505644;39;20029;-58
2021/08/02 03:10:22;;;;;;;9.52;5.30;;;;;;;;;;1505714;39;20041;-60
2021/08/02 03:11:23;;;;;;;9.50;5.20;;;;;;;;;;1505620;39;20361;-58
2021/08/02 03:12:27;;;;;;;7.80;4.90;;;;;;;;;;1505687;39;20414;-59
2021/08/02 03:13:27;;;;;;;9.63;5.65;;;;;;;;;;1505663;39;20026;-58
2021/08/02 03:14:30;;;;;;;8.88;5.05;;;;;;;;;;1505626;39;20053;-58
2021/08/02 03:15:31;;;;;;;9.30;5.40;;;;;;;;;;1505607;39;20106;-58
2021/08/02 03:16:34;;;;;;;11.57;5.53;;;;;;;;;;1505705;39;20098;-58
2021/08/02 03:17:34;;;;;;;10.15;5.40;;;;;;;;;;1505610;39;20293;-58
2021/08/02 03:18:36;;;;;;;8.02;5.25;;;;;;;;;;1505708;39;20055;-58
2021/08/02 03:19:38;;;;;;;8.68;5.55;;;;;;;;;;1505558;39;20103;-59
2021/08/02 03:20:41;;;;;;;10.30;5.65;;;;;;;;;;1505640;39;20063;-58
2021/08/02 03:21:42;;;;;;;10.63;5.95;;;;;;;;;;1505599;39;20046;-58
2021/08/02 03:22:48;;;;;;;8.35;5.53;;;;;;;;;;1505658;39;20026;-58
2021/08/02 03:24:01;;;;;;;9.57;5.75;;;;;;;;;;1505680;39;20126;-59
2021/08/02 03:25:10;;;;;;;10.65;5.00;;;;;;;;;;1505722;39;20457;-58
2021/08/02 03:26:14;;;;;;;9.57;5.38;;;;;;;;;;1505630;39;20029;-58
2021/08/02 03:27:23;;;;;;;8.48;5.18;;;;;;;;;;1505632;39;20022;-58
2021/08/02 03:28:32;;;;;;;12.43;5.63;;;;;;;;;;1505723;39;20018;-60
2021/08/02 03:29:38;;;;;;;12.18;5.78;;;;;;;;;;1505660;39;20220;-58
2021/08/02 03:30:43;;;;;;;10.35;5.72;;;;;;;;;;1505594;39;20025;-58
2021/08/02 03:31:49;;;;;;;9.98;5.80;;;;;;;;;;1505618;39;20031;-59
2021/08/02 03:32:51;;;;;;;10.65;6.03;;;;;;;;;;1505851;39;20374;-58
2021/08/02 03:33:54;;;;;;;9.77;5.55;;;;;;;;;;1505778;39;20055;-58
2021/08/02 03:34:59;;;;;;;9.93;6.25;;;;;;;;;;1505479;39;20030;-60
2021/08/02 03:36:05;;;;;;;8.48;5.88;;;;;;;;;;1505613;39;20026;-58
2021/08/02 03:37:10;;;;;;;9.95;6.20;;;;;;;;;;1505710;39;20022;-59
2021/08/02 03:38:15;;;;;;;9.90;5.90;;;;;;;;;;1505616;39;20049;-58
2021/08/02 03:39:18;;;;;;;12.95;6.40;;;;;;;;;;1505542;39;20033;-58
2021/08/02 03:40:22;;;;;;;10.38;6.25;;;;;;;;;;1505672;39;20026;-60
2021/08/02 03:41:24;;;;;;;13.43;6.50;;;;;;;;;;1505539;39;20022;-60
2021/08/02 03:42:26;;;;;;;10.68;6.40;;;;;;;;;;1505654;39;20079;-59
2021/08/02 03:43:28;;;;;;;9.90;6.35;;;;;;;;;;1505543;39;20026;-59
2021/08/02 03:44:31;;;;;;;12.23;6.25;;;;;;;;;;1505648;39;20023;-59
2021/08/02 03:45:33;;;;;;;11.73;6.15;;;;;;;;;;1505687;39;20137;-59
2021/08/02 03:46:35;;;;;;;9.55;6.00;;;;;;;;;;1505623;39;20058;-58
2021/08/02 03:47:36;;;;;;;14.10;5.97;;;;;;;;;;1505510;39;20025;-58
2021/08/02 03:48:38;;;;;;;10.77;6.25;;;;;;;;;;1505615;39;20074;-59
2021/08/02 03:49:40;;;;;;;11.13;5.72;;;;;;;;;;1505430;39;20023;-58
2021/08/02 03:50:41;;;;;;;11.57;5.95;;;;;;;;;;1505567;39;20423;-59
2021/08/02 03:51:44;;;;;;;9.77;6.32;;;;;;;;;;1505467;39;20297;-58
2021/08/02 03:52:47;;;;;;;10.80;5.88;;;;;;;;;;1505754;39;20035;-58
2021/08/02 03:53:49;;;;;;;10.93;6.28;;;;;;;;;;1505498;39;20399;-58
2021/08/02 03:54:51;;;;;;;9.35;6.03;;;;;;;;;;1505472;39;20027;-58
2021/08/02 03:55:52;;;;;;;9.65;5.97;;;;;;;;;;1505477;39;20397;-58
2021/08/02 03:56:55;;;;;;;10.35;6.05;;;;;;;;;;1505763;39;20019;-58
2021/08/02 03:57:56;;;;;;;10.55;6.43;;;;;;;;;;1505623;39;20018;-59
2021/08/02 03:58:59;;;;;;;12.77;6.63;;;;;;;;;;1505485;39;20390;-58
2021/08/02 04:00:00;;;;;;;11.15;6.22;;;;;;;;;;1505408;39;20416;-59
2021/08/02 04:01:02;;;;;;;10.85;6.40;;;;;;;;;;1500882;39;20089;-58
2021/08/02 04:02:03;;;;;;;14.48;6.43;;;;;;;;;;1500756;39;20031;-58
2021/08/02 04:03:05;;;;;;;11.65;6.50;;;;;;;;;;1505588;39;20038;-60
2021/08/02 04:04:06;;;;;;;9.63;6.10;;;;;;;;;;1505430;39;20018;-59
2021/08/02 04:05:08;;;;;;;11.10;6.40;;;;;;;;;;1505636;39;20110;-59
2021/08/02 04:06:10;;;;;;;12.70;6.45;;;;;;;;;;1505550;39;20026;-58
2021/08/02 04:07:12;;;;;;;13.65;6.60;;;;;;;;;;1505533;39;20031;-59
2021/08/02 04:08:12;;;;;;;12.55;6.78;;;;;;;;;;1505522;39;20034;-58
2021/08/02 04:09:14;;;;;;;12.02;6.50;;;;;;;;;;1505547;39;20027;-58
2021/08/02 04:10:15;;;;;;;11.52;6.43;;;;;;;;;;1505403;39;20054;-58
2021/08/02 04:11:17;;;;;;;10.45;5.88;;;;;;;;;;1505545;39;20025;-59
2021/08/02 04:12:18;;;;;;;11.93;6.40;;;;;;;;;;1505466;39;20286;-60
2021/08/02 04:13:20;;;;;;;10.98;6.07;;;;;;;;;;1505622;39;20039;-58
2021/08/02 04:14:23;;;;;;;9.45;5.97;;;;;;;;;;1505483;39;20440;-58
2021/08/02 04:15:24;;;;;;;10.15;6.10;;;;;;;;;;1505648;39;20019;-58
2021/08/02 04:16:25;;;;;;;10.13;5.97;;;;;;;;;;1506142;39;20022;-58
2021/08/02 04:17:26;;;;;;;12.55;6.47;;;;;;;;;;1506199;39;20030;-58
2021/08/02 04:18:29;;;;;;;10.68;5.80;;;;;;;;;;1506176;39;20301;-58
2021/08/02 04:19:30;;;;;;;12.55;5.70;;;;;;;;;;1506044;39;20027;-59
2021/08/02 04:20:32;;;;;;;13.18;6.13;;;;;;;;;;1506273;39;20034;-58
2021/08/02 04:21:32;;;;;;;8.63;5.93;;;;;;;;;;1506019;39;20018;-58
2021/08/02 04:22:34;;;;;;;11.20;6.25;;;;;;;;;;1506159;39;20026;-58
2021/08/02 04:23:35;;;;;;;10.50;6.22;;;;;;;;;;1506222;39;20400;-58
2021/08/02 04:24:37;;;;;;;11.95;6.43;;;;;;;;;;1506155;39;20022;-58
2021/08/02 04:25:39;;;;;;;9.60;6.32;;;;;;;;;;1506247;39;20018;-58
2021/08/02 04:26:41;;;;;;;11.75;6.72;;;;;;;;;;1506187;39;20022;-55
2021/08/02 04:27:41;;;;;;;10.63;6.30;;;;;;;;;;1506080;39;20022;-57
2021/08/02 04:28:45;;;;;;;11.23;6.25;;;;;;;;;;1506234;39;20019;-57
2021/08/02 04:29:47;;;;;;;12.13;6.72;;;;;;;;;;1506197;39;20022;-58
2021/08/02 04:30:49;;;;;;;10.27;6.07;;;;;;;;;;1506118;39;20023;-55
2021/08/02 04:31:50;;;;;;;9.13;5.50;;;;;;;;;;1506059;39;20019;-58
2021/08/02 04:32:51;;;;;;;12.65;6.38;;;;;;;;;;1506127;39;20058;-55
2021/08/02 04:33:53;;;;;;;10.30;6.25;;;;;;;;;;1506075;39;20015;-58
2021/08/02 04:34:55;;;;;;;12.30;5.90;;;;;;;;;;1506155;39;20067;-58
2021/08/02 04:35:55;;;;;;;12.43;6.32;;;;;;;;;;1506297;39;20023;-58
2021/08/02 04:36:57;;;;;;;16.10;6.85;;;;;;;;;;1506162;39;20397;-55
2021/08/02 04:37:58;;;;;;;9.55;6.47;;;;;;;;;;1506029;39;20025;-55
2021/08/02 04:39:00;;;;;;;9.13;6.07;;;;;;;;;;1506174;39;20034;-56
2021/08/02 04:40:00;;;;;;;9.13;5.85;;;;;;;;;;1505949;39;20057;-58
2021/08/02 04:41:02;;;;;;;9.80;5.53;;;;;;;;;;1506070;39;20023;-56
2021/08/02 04:42:03;;;;;;;9.40;5.97;;;;;;;;;;1506209;39;20377;-55
2021/08/02 04:43:05;;;;;;;11.50;6.07;;;;;;;;;;1506272;39;20027;-58
2021/08/02 04:44:06;;;;;;;12.93;6.40;;;;;;;;;;1506022;39;20023;-55
2021/08/02 04:45:10;;;;;;;10.50;5.93;;;;;;;;;;1506150;39;20373;-58
2021/08/02 04:46:11;;;;;;;10.43;6.18;;;;;;;;;;1505970;39;20031;-57
2021/08/02 04:47:13;;;;;;;13.15;6.45;;;;;;;;;;1506253;39;20258;-58
2021/08/02 04:48:14;;;;;;;11.90;6.35;;;;;;;;;;1506010;39;20263;-56
2021/08/02 04:49:15;;;;;;;11.05;6.28;;;;;;;;;;1506136;39;20042;-58
2021/08/02 04:50:16;;;;;;;10.82;6.05;;;;;;;;;;1505968;39;20037;-58
2021/08/02 04:51:18;;;;;;;10.35;6.18;;;;;;;;;;1506193;39;20042;-56
2021/08/02 04:52:19;;;;;;;9.43;6.00;;;;;;;;;;1506028;39;20025;-58
2021/08/02 04:53:21;;;;;;;9.75;5.82;;;;;;;;;;1506155;39;20131;-58
2021/08/02 04:54:22;;;;;;;10.65;5.55;;;;;;;;;;1506165;39;20038;-56
2021/08/02 04:55:23;;;;;;;13.50;6.07;;;;;;;;;;1506047;39;20030;-58
2021/08/02 04:56:24;;;;;;;10.02;5.93;;;;;;;;;;1505936;39;20029;-58
2021/08/02 04:57:26;;;;;;;12.07;6.25;;;;;;;;;;1506135;39;20305;-58
2021/08/02 04:58:27;;;;;;;10.25;5.53;;;;;;;;;;1505984;39;20027;-58
2021/08/02 04:59:29;;;;;;;11.50;6.40;;;;;;;;;;1505955;39;20026;-56
2021/08/02 05:00:31;;;;;;;9.50;5.75;;;;;;;;;;1505960;39;20039;-58
2021/08/02 05:01:33;;;;;;;13.30;6.22;;;;;;;;;;1505948;39;20023;-55
2021/08/02 05:02:34;;;;;;;9.90;6.18;;;;;;;;;;1506089;39;20030;-56
2021/08/02 05:03:37;;;;;;;11.65;6.10;;;;;;;;;;1506074;39;20286;-57
2021/08/02 05:04:39;;;;;;;10.32;6.00;;;;;;;;;;1501165;39;20469;-58
2021/08/02 05:05:41;;;;;;;10.00;6.03;;;;;;;;;;1501272;39;20077;-58
2021/08/02 05:06:42;;;;;;;9.65;5.95;;;;;;;;;;1505936;39;20022;-58
2021/08/02 05:07:43;;;;;;;12.30;6.38;;;;;;;;;;1506165;39;20026;-58
2021/08/02 05:08:44;;;;;;;12.90;6.53;;;;;;;;;;1505994;39;20018;-58
2021/08/02 05:09:46;;;;;;;10.65;5.90;;;;;;;;;;1506155;39;20065;-58
2021/08/02 05:10:47;;;;;;;10.63;6.40;;;;;;;;;;1506059;39;20113;-58
2021/08/02 05:11:49;;;;;;;10.55;6.13;;;;;;;;;;1506109;39;20023;-58
2021/08/02 05:12:50;;;;;;;10.07;6.30;;;;;;;;;;1506176;39;20026;-58
2021/08/02 05:13:52;;;;;;;10.75;6.45;;;;;;;;;;1505977;39;20063;-58
2021/08/02 05:14:53;;;;;;;9.00;5.82;;;;;;;;;;1505833;39;20027;-58
2021/08/02 05:15:56;;;;;;;12.27;6.60;;;;;;;;;;1506053;39;20022;-58
2021/08/02 05:16:57;;;;;;;10.23;5.90;;;;;;;;;;1505929;39;20019;-58
2021/08/02 05:17:59;;;;;;;9.02;6.03;;;;;;;;;;1506172;39;20023;-58
2021/08/02 05:18:59;;;;;;;11.70;6.30;;;;;;;;;;1505917;39;20027;-58
2021/08/02 05:20:01;;;;;;;11.88;6.95;;;;;;;;;;1505852;39;20401;-58
2021/08/02 05:21:03;;;;;;;11.82;6.18;;;;;;;;;;1505958;39;20393;-58
2021/08/02 05:22:05;;;;;;;12.15;6.57;;;;;;;;;;1506039;39;20029;-58
2021/08/02 05:23:06;;;;;;;11.02;6.50;;;;;;;;;;1505908;39;20019;-57
2021/08/02 05:24:08;;;;;;;10.52;6.13;;;;;;;;;;1505999;39;20015;-58
2021/08/02 05:25:10;;;;;;;10.75;6.60;;;;;;;;;;1505952;39;20018;-58
2021/08/02 05:26:12;;;;;;;10.20;6.32;;;;;;;;;;1506144;39;20033;-58
2021/08/02 05:27:12;;;;;;;14.10;7.45;;;;;;;;;;1505494;39;20027;-58
2021/08/02 05:28:14;;;;;;;13.85;6.72;;;;;;;;;;1506095;39;20258;-58
2021/08/02 05:29:15;;;;;;;11.27;6.80;;;;;;;;;;1505986;39;20025;-59
2021/08/02 05:30:17;;;;;;;11.18;6.45;;;;;;;;;;1506102;39;20057;-58
2021/08/02 05:31:19;;;;;;;10.05;6.68;;;;;;;;;;1505908;39;20386;-58
2021/08/02 05:32:21;;;;;;;10.20;6.57;;;;;;;;;;1506060;39;20110;-58
2021/08/02 05:33:22;;;;;;;12.35;7.07;;;;;;;;;;1505982;39;20022;-58
2021/08/02 05:34:24;;;;;;;11.15;6.68;;;;;;;;;;1506025;39;20033;-59
2021/08/02 05:35:24;;;;;;;12.65;7.53;;;;;;;;;;1505934;39;20030;-58
2021/08/02 05:36:26;;;;;;;14.90;7.35;;;;;;;;;;1505953;39;20023;-58
2021/08/02 05:37:28;;;;;;;13.27;7.82;;;;;;;;;;1506049;39;20019;-58
2021/08/02 05:38:29;;;;;;;12.82;7.18;;;;;;;;;;1506013;39;20034;-59
2021/08/02 05:39:30;;;;;;;12.40;6.95;;;;;;;;;;1505798;39;20018;-57
2021/08/02 05:40:32;;;;;;;13.48;7.00;;;;;;;;;;1505898;39;20390;-58
2021/08/02 05:41:33;;;;;;;10.63;6.15;;;;;;;;;;1505944;39;20042;-58
2021/08/02 05:42:36;;;;;;;12.13;6.53;;;;;;;;;;1505941;39;20030;-57
2021/08/02 05:43:36;;;;;;;10.82;6.53;;;;;;;;;;1505833;39;20102;-58
2021/08/02 05:44:38;;;;;;;13.45;7.30;;;;;;;;;;1506054;39;20099;-58
2021/08/02 05:45:39;;;;;;;10.85;6.65;;;;;;;;;;1505875;39;20023;-58
2021/08/02 05:46:43;;;;;;;14.70;6.80;;;;;;;;;;1505992;39;20027;-58
2021/08/02 05:47:44;;;;;;;12.20;6.43;;;;;;;;;;1505900;39;20025;-58
2021/08/02 05:48:46;;;;;;;9.90;6.30;;;;;;;;;;1506065;39;20034;-59
2021/08/02 05:49:46;;;;;;;10.10;6.50;;;;;;;;;;1505818;39;20038;-57
2021/08/02 05:50:48;;;;;;;10.85;6.70;;;;;;;;;;1506046;39;20022;-58
2021/08/02 05:51:49;;;;;;;11.50;6.05;;;;;;;;;;1505997;39;20029;-57
2021/08/02 05:52:51;;;;;;;9.30;6.13;;;;;;;;;;1506101;39;20045;-58
2021/08/02 05:53:52;;;;;;;14.90;6.35;;;;;;;;;;1505930;39;20023;-58
2021/08/02 05:54:53;;;;;;;13.25;6.70;;;;;;;;;;1506058;39;20037;-58
2021/08/02 05:55:54;;;;;;;14.25;6.75;;;;;;;;;;1505990;39;20023;-59
2021/08/02 05:56:56;;;;;;;11.18;6.47;;;;;;;;;;1505925;39;20382;-59
2021/08/02 05:57:57;;;;;;;12.95;6.45;;;;;;;;;;1505857;39;20018;-59
2021/08/02 05:58:59;;;;;;;12.25;6.60;;;;;;;;;;1505825;39;20022;-58
2021/08/02 05:59:59;;;;;;;11.73;6.95;;;;;;;;;;1505843;39;20305;-58
2021/08/02 06:01:01;;;;;;;9.50;6.53;;;;;;;;;;1505884;39;20026;-58
2021/08/02 06:02:04;;;;;;;12.35;6.55;;;;;;;;;;1506065;39;20029;-58
2021/08/02 06:03:05;;;;;;;12.20;6.88;;;;;;;;;;1505880;39;20430;-58
2021/08/02 06:04:06;;;;;;;11.93;6.82;;;;;;;;;;1505902;39;20030;-58
2021/08/02 06:05:09;;;;;;;12.38;6.50;;;;;;;;;;1506003;39;20034;-58
2021/08/02 06:06:10;;;;;;;11.90;6.40;;;;;;;;;;1505920;39;20022;-58
2021/08/02 06:07:12;;;;;;;11.77;6.65;;;;;;;;;;1505910;39;20022;-58
2021/08/02 06:08:13;;;;;;;11.55;7.18;;;;;;;;;;1505872;39;20072;-59
2021/08/02 06:09:15;;;;;;;13.48;6.72;;;;;;;;;;1505960;39;20023;-58
2021/08/02 06:10:15;;;;;;;10.02;6.18;;;;;;;;;;1500903;39;20027;-58
2021/08/02 06:11:17;;;;;;;13.57;7.05;;;;;;;;;;1501231;39;20044;-58
2021/08/02 06:12:18;;;;;;;10.40;6.32;;;;;;;;;;1505875;39;20046;-59
2021/08/02 06:13:20;;;;;;;10.50;5.97;;;;;;;;;;1505885;39;20033;-59
2021/08/02 06:14:21;;;;;;;12.20;6.47;;;;;;;;;;1505802;39;20026;-58
2021/08/02 06:15:22;;;;;;;11.02;6.45;;;;;;;;;;1506053;39;20046;-58
2021/08/02 06:16:23;;;;;;;13.10;6.35;;;;;;;;;;1505825;39;20029;-58
2021/08/02 06:17:26;;;;;;;11.95;6.25;;;;;;;;;;1505857;39;20019;-58
2021/08/02 06:18:27;;;;;;;11.32;5.70;;;;;;;;;;1505891;39;20026;-59